Airfield :
LOGIN :

Register | Disclaimer

   EN    FR    IT 

 










Legend :    VFR   Marginal VFR   IFR   Intensive IFR   Very Intensive IFR
Visi :
Ceiling :
>= 8 km
>= 3000ft
5 to 8 km
1000 to 3000 ft
1500m to 5 km
500 to 1000 ft
800 to 1500m
200 to 500 ft
< 800m
< 200 ft
Symbols :   Thunderstorms  Fog  Heavy snow  Heavy precipitations  Wind > 20 kt
SIGMETs :     Misc.  Thunderstorms  Icing  Turbulence  Mountain Waves  Volcanic Ashes







- Airport Elevation : 157 ft
- IATA code : LIL
- Download approach charts


LFQQ - Lille Lesquin

CURRENT METAR :
  • 171100Z AUTO 27005KT 240V320 9999 FEW041 SCT052 BKN100 22/12 Q1020 NOSIG

EXPIRED METARs :
  • 171030Z AUTO 30006KT 260V350 9999 SCT039 BKN047 BKN100 22/12 Q1020 NOSIG
  • 171000Z AUTO 32006KT 280V020 9999 SCT035 SCT042 BKN100 21/12 Q1019 NOSIG
  • 170930Z AUTO 31007KT 250V350 9999 SCT029 BKN038 BKN100 20/12 Q1019 NOSIG
  • 170900Z AUTO 31007KT 270V360 9999 SCT024 BKN100 BKN120 20/14 Q1019 NOSIG
  • 170830Z AUTO 31007KT CAVOK 19/14 Q1019 NOSIG

TAF TAF LFQQ
Valid from the 17 at 06:00 until the 18 at 12:00 UTC


170500Z 1706/1812 31010KT 9999 SCT030
BECMG 1719/1722 20003KT
TEMPO 1802/1807 2000 BR
ATIS : +33 3 20 16 19 54
No reported NOTAMs for that airfield.
1 SIGMET reported for the Paris FIR (LFFF) :
 
Severe turbulence
LFFF SIGMET 6 VALID 171000/171400 LFPW
LFFF PARIS FIR/UIR SEV TURB FCST WI N4700 E00215 - N4715 E00200 - N4715 E00030 - N5030 E00315 - N5000 E00500 - N4700 E00215 FL250/350 MOV E 20KT INTSF=



MET'MAP, your aeronautical weather chart ! - Copyright ORBIFLY December 2007 - Disclaimer

ORBIFLY MET'MAP TEAM :

Programming & Development : Alexandra Zaïnal
Concept & Development : Baudouin d'Aumeries
Co-Development & Prog : Marc-Olivier Méhu
Technical & hardware support : Manuel Goepfert

Contact : metmap@orbifly.com




SOURCES & CREDITS :

   NOAA